createdAt,value
2022-08-17T00:00:49.208Z,16.21
2022-08-17T00:01:52.261Z,16.17
2022-08-17T00:02:42.868Z,16.16
2022-08-17T00:03:40.400Z,16.13
2022-08-17T00:04:40.200Z,16.17
2022-08-17T00:05:40.136Z,16.13
2022-08-17T00:06:40.663Z,16.13
2022-08-17T00:07:40.201Z,16.17
2022-08-17T00:08:40.152Z,16.21
2022-08-17T00:09:40.027Z,16.21
2022-08-17T00:10:40.129Z,16.18
2022-08-17T00:11:40.124Z,16.17
2022-08-17T00:12:43.237Z,16.22
2022-08-17T00:13:40.312Z,16.29
2022-08-17T00:14:40.266Z,16.34
2022-08-17T00:15:40.035Z,16.36
2022-08-17T00:16:50.448Z,16.31
2022-08-17T00:17:40.067Z,16.28
2022-08-17T00:18:53.867Z,16.28
2022-08-17T00:19:40.127Z,16.25
2022-08-17T00:20:40.033Z,16.26
2022-08-17T00:22:10.643Z,16.24
2022-08-17T00:22:40.350Z,16.26
2022-08-17T00:23:44.416Z,16.28
2022-08-17T00:24:40.272Z,16.31
2022-08-17T00:25:39.946Z,16.32
2022-08-17T00:26:45.130Z,16.34
2022-08-17T00:27:39.998Z,16.32
2022-08-17T00:28:39.923Z,16.31
2022-08-17T00:29:40.047Z,16.32
2022-08-17T00:30:51.051Z,16.32
2022-08-17T00:31:40.020Z,16.29
2022-08-17T00:33:11.613Z,16.25
2022-08-17T00:33:39.650Z,16.21
2022-08-17T00:34:39.669Z,16.17
2022-08-17T00:35:39.878Z,16.10
2022-08-17T00:36:39.651Z,16.08
2022-08-17T00:37:39.605Z,16.03
2022-08-17T00:38:39.800Z,16.00
2022-08-17T00:39:39.656Z,15.98
2022-08-17T00:40:44.460Z,15.99
2022-08-17T00:41:42.198Z,16.02
2022-08-17T00:42:39.590Z,16.00
2022-08-17T00:43:39.569Z,16.00
2022-08-17T00:44:39.699Z,15.99
2022-08-17T00:45:39.516Z,16.00
2022-08-17T00:46:39.549Z,15.98
2022-08-17T00:47:39.588Z,15.87
2022-08-17T00:48:39.605Z,15.80
2022-08-17T00:49:39.507Z,15.73
2022-08-17T00:50:39.490Z,15.69
2022-08-17T00:51:39.526Z,15.65
2022-08-17T00:52:40.449Z,15.66
2022-08-17T00:53:39.510Z,15.67
2022-08-17T00:54:41.909Z,15.72
2022-08-17T00:55:39.498Z,15.72
2022-08-17T00:56:39.394Z,15.72
2022-08-17T00:57:39.389Z,15.72
2022-08-17T00:58:39.371Z,15.72
2022-08-17T00:59:39.347Z,15.72
2022-08-17T01:00:39.452Z,15.69
2022-08-17T01:01:39.384Z,15.66
2022-08-17T01:02:42.299Z,15.66
2022-08-17T01:03:39.327Z,15.67
2022-08-17T01:04:39.333Z,15.67
2022-08-17T01:05:42.339Z,15.72
2022-08-17T01:06:39.529Z,15.72
2022-08-17T01:07:39.298Z,15.70
2022-08-17T01:08:39.268Z,15.65
2022-08-17T01:09:39.233Z,15.60
2022-08-17T01:10:57.186Z,15.62
2022-08-17T01:11:39.270Z,15.60
2022-08-17T01:12:39.287Z,15.62
2022-08-17T01:13:41.179Z,15.60
2022-08-17T01:14:39.172Z,15.60
2022-08-17T01:15:39.244Z,15.57
2022-08-17T01:16:39.154Z,15.55
2022-08-17T01:17:39.147Z,15.50
2022-08-17T01:18:39.169Z,15.47
2022-08-17T01:19:39.154Z,15.47
2022-08-17T01:20:43.088Z,15.51
2022-08-17T01:21:39.105Z,15.45
2022-08-17T01:22:39.081Z,15.41
2022-08-17T01:23:39.104Z,15.41
2022-08-17T01:24:39.095Z,15.39
2022-08-17T01:25:39.056Z,15.33
2022-08-17T01:26:39.073Z,15.30
2022-08-17T01:27:39.045Z,15.26
2022-08-17T01:28:54.136Z,15.30
2022-08-17T01:29:39.019Z,15.33
2022-08-17T01:30:58.856Z,15.43
2022-08-17T01:31:39.535Z,15.39
2022-08-17T01:32:38.975Z,15.39
2022-08-17T01:33:38.969Z,15.41
2022-08-17T01:34:43.510Z,15.37
2022-08-17T01:35:38.949Z,15.33
2022-08-17T01:36:38.990Z,15.29
2022-08-17T01:37:38.941Z,15.25
2022-08-17T01:38:39.040Z,15.25
2022-08-17T01:39:39.956Z,15.19
2022-08-17T01:40:38.885Z,15.15
2022-08-17T01:41:38.874Z,15.11
2022-08-17T01:42:38.901Z,15.12
2022-08-17T01:43:38.890Z,15.14
2022-08-17T01:44:38.858Z,15.17
2022-08-17T01:45:38.830Z,15.19
2022-08-17T01:46:38.810Z,15.25
2022-08-17T01:47:38.810Z,15.25
2022-08-17T01:48:38.832Z,15.25
2022-08-17T01:49:39.496Z,15.23
2022-08-17T01:50:38.770Z,15.18
2022-08-17T01:51:39.016Z,15.19
2022-08-17T01:52:38.739Z,15.17
2022-08-17T01:53:38.760Z,15.12
2022-08-17T01:54:38.786Z,15.12
2022-08-17T01:55:38.705Z,15.10
2022-08-17T01:56:38.703Z,15.05
2022-08-17T01:57:38.688Z,15.04
2022-08-17T01:58:38.722Z,15.02
2022-08-17T01:59:38.674Z,14.94
2022-08-17T02:01:00.875Z,14.87
2022-08-17T02:01:38.827Z,14.81
2022-08-17T02:02:38.641Z,14.77
2022-08-17T02:03:38.622Z,14.74
2022-08-17T02:04:38.664Z,14.71
2022-08-17T02:05:38.625Z,14.77
2022-08-17T02:06:52.431Z,14.81
2022-08-17T02:07:59.720Z,14.82
2022-08-17T02:08:43.196Z,14.86
2022-08-17T02:09:39.496Z,14.86
2022-08-17T02:10:38.606Z,14.85
2022-08-17T02:11:38.536Z,14.86
2022-08-17T02:12:39.881Z,14.85
2022-08-17T02:13:39.367Z,14.86
2022-08-17T02:14:38.502Z,14.81
2022-08-17T02:15:38.547Z,14.77
2022-08-17T02:16:38.467Z,14.74
2022-08-17T02:17:38.503Z,14.74
2022-08-17T02:18:38.506Z,14.73
2022-08-17T02:19:39.012Z,14.71
2022-08-17T02:20:41.985Z,14.67
2022-08-17T02:21:38.428Z,14.66
2022-08-17T02:22:38.425Z,14.63
2022-08-17T02:23:38.422Z,14.62
2022-08-17T02:24:58.834Z,14.58
2022-08-17T02:25:38.395Z,14.58
2022-08-17T02:26:38.350Z,14.59
2022-08-17T02:27:38.377Z,14.58
2022-08-17T02:28:38.328Z,14.55
2022-08-17T02:29:38.326Z,14.52
2022-08-17T02:30:59.406Z,14.51
2022-08-17T02:31:38.307Z,14.45
2022-08-17T02:32:38.291Z,14.44
2022-08-17T02:33:42.911Z,14.44
2022-08-17T02:34:38.286Z,14.43
2022-08-17T02:35:38.327Z,14.40
2022-08-17T02:36:38.303Z,14.40
2022-08-17T02:37:38.228Z,14.38
2022-08-17T02:38:38.241Z,14.36
2022-08-17T02:39:38.327Z,14.33
2022-08-17T02:40:38.210Z,14.30
2022-08-17T02:41:38.188Z,14.30
2022-08-17T02:42:38.228Z,14.30
2022-08-17T02:43:38.210Z,14.28
2022-08-17T02:44:39.908Z,14.30
2022-08-17T02:45:38.161Z,14.25
2022-08-17T02:46:38.151Z,14.23
2022-08-17T02:47:38.131Z,14.20
2022-08-17T02:48:38.162Z,14.18
2022-08-17T02:49:38.106Z,14.22
2022-08-17T02:50:38.081Z,14.23
2022-08-17T02:51:38.075Z,14.28
2022-08-17T02:52:42.322Z,14.23
2022-08-17T02:53:38.065Z,14.20
2022-08-17T02:54:41.340Z,14.18
2022-08-17T02:55:38.047Z,14.18
2022-08-17T02:56:40.013Z,14.19
2022-08-17T02:57:38.019Z,14.22
2022-08-17T02:58:38.005Z,14.23
2022-08-17T02:59:37.992Z,14.28
2022-08-17T03:00:38.009Z,14.30
2022-08-17T03:01:38.054Z,14.30
2022-08-17T03:02:37.961Z,14.38
2022-08-17T03:03:37.995Z,14.43
2022-08-17T03:04:37.936Z,14.49
2022-08-17T03:05:37.917Z,14.63
2022-08-17T03:06:37.933Z,14.85
2022-08-17T03:07:38.529Z,14.92
2022-08-17T03:08:39.491Z,14.94
2022-08-17T03:09:37.868Z,14.99
2022-08-17T03:10:37.867Z,15.02
2022-08-17T03:11:37.847Z,15.05
2022-08-17T03:12:37.872Z,15.02
2022-08-17T03:13:37.855Z,15.11
2022-08-17T03:14:41.308Z,15.15
2022-08-17T03:15:37.815Z,15.17
2022-08-17T03:16:37.889Z,15.15
2022-08-17T03:17:37.828Z,15.14
2022-08-17T03:18:37.904Z,15.17
2022-08-17T03:19:39.640Z,15.14
2022-08-17T03:20:37.856Z,15.17
2022-08-17T03:21:38.063Z,15.14
2022-08-17T03:22:52.964Z,15.15
2022-08-17T03:23:37.750Z,15.14
2022-08-17T03:24:38.443Z,15.12
2022-08-17T03:25:37.777Z,15.10
2022-08-17T03:26:37.993Z,15.10
2022-08-17T03:27:37.814Z,15.11
2022-08-17T03:28:37.681Z,15.14
2022-08-17T03:29:38.385Z,15.19
2022-08-17T03:30:37.901Z,15.23
2022-08-17T03:31:38.709Z,15.23
2022-08-17T03:32:37.709Z,15.23
2022-08-17T03:33:37.625Z,15.19
2022-08-17T03:34:37.677Z,15.17
2022-08-17T03:35:37.661Z,15.17
2022-08-17T03:36:37.689Z,15.12
2022-08-17T03:37:37.561Z,15.08
2022-08-17T03:38:38.981Z,15.05
2022-08-17T03:39:37.596Z,14.99
2022-08-17T03:40:58.204Z,14.92
2022-08-17T03:41:37.529Z,14.89
2022-08-17T03:42:37.535Z,14.86
2022-08-17T03:43:38.536Z,14.86
2022-08-17T03:44:37.549Z,14.85
2022-08-17T03:45:37.458Z,14.82
2022-08-17T03:46:37.452Z,14.81
2022-08-17T03:47:37.440Z,14.81
2022-08-17T03:48:37.509Z,14.82
2022-08-17T03:49:37.451Z,14.82
2022-08-17T03:50:37.410Z,14.82
2022-08-17T03:51:37.404Z,14.82
2022-08-17T03:52:37.397Z,14.82
2022-08-17T03:53:37.376Z,14.85
2022-08-17T03:54:37.412Z,14.86
2022-08-17T03:55:37.355Z,14.87
2022-08-17T03:56:37.854Z,14.87
2022-08-17T03:57:37.325Z,14.87
2022-08-17T03:58:37.321Z,14.89
2022-08-17T03:59:37.315Z,14.86
2022-08-17T04:00:39.729Z,14.89
2022-08-17T04:01:37.308Z,14.93
2022-08-17T04:02:37.274Z,14.96
2022-08-17T04:03:38.031Z,14.99
2022-08-17T04:04:37.249Z,15.00
2022-08-17T04:05:37.288Z,15.00
2022-08-17T04:06:37.299Z,14.99
2022-08-17T04:07:37.221Z,14.96
2022-08-17T04:08:37.208Z,14.89
2022-08-17T04:09:37.192Z,14.87
2022-08-17T04:10:44.789Z,14.85
2022-08-17T04:11:37.184Z,14.82
2022-08-17T04:12:37.301Z,14.79
2022-08-17T04:13:37.144Z,14.79
2022-08-17T04:14:51.875Z,14.74
2022-08-17T04:15:37.127Z,14.74
2022-08-17T04:16:37.117Z,14.77
2022-08-17T04:17:37.112Z,14.81
2022-08-17T04:18:37.140Z,14.82
2022-08-17T04:19:37.103Z,14.90
2022-08-17T04:20:37.066Z,14.99
2022-08-17T04:21:37.063Z,15.10
2022-08-17T04:22:37.403Z,15.26
2022-08-17T04:23:37.277Z,15.44
2022-08-17T04:24:37.286Z,15.59
2022-08-17T04:25:37.224Z,15.76
2022-08-17T04:26:52.444Z,15.83
2022-08-17T04:27:37.406Z,15.88
2022-08-17T04:28:37.382Z,15.92
2022-08-17T04:29:54.217Z,16.00
2022-08-17T04:30:37.479Z,16.09
2022-08-17T04:31:37.320Z,16.17
2022-08-17T04:33:05.269Z,16.25
2022-08-17T04:33:37.268Z,16.34
2022-08-17T04:34:37.359Z,16.46
2022-08-17T04:35:37.106Z,16.59
2022-08-17T04:36:37.443Z,16.73
2022-08-17T04:37:37.213Z,16.79
2022-08-17T04:38:36.884Z,16.84
2022-08-17T04:39:36.909Z,16.89
2022-08-17T04:40:36.838Z,16.94
2022-08-17T04:41:36.825Z,16.95
2022-08-17T04:42:36.911Z,16.95
2022-08-17T04:43:36.839Z,16.97
2022-08-17T04:44:38.017Z,16.97
2022-08-17T04:45:36.786Z,16.98
2022-08-17T04:46:36.775Z,16.99
2022-08-17T04:47:36.829Z,17.02
2022-08-17T04:48:37.607Z,17.02
2022-08-17T04:49:36.742Z,17.04
2022-08-17T04:50:36.755Z,17.12
2022-08-17T04:51:36.709Z,17.27
2022-08-17T04:52:43.287Z,17.35
2022-08-17T04:53:36.981Z,17.38
2022-08-17T04:54:36.744Z,17.37
2022-08-17T04:55:36.674Z,17.32
2022-08-17T04:56:36.656Z,17.38
2022-08-17T04:57:38.462Z,17.50
2022-08-17T04:58:36.662Z,17.54
2022-08-17T04:59:36.651Z,17.66
2022-08-17T05:00:36.653Z,17.75
2022-08-17T05:01:36.636Z,17.80
2022-08-17T05:02:36.636Z,17.82
2022-08-17T05:03:36.576Z,17.80
2022-08-17T05:04:36.616Z,17.78
2022-08-17T05:05:36.587Z,17.73
2022-08-17T05:06:36.595Z,17.75
2022-08-17T05:07:36.538Z,17.79
2022-08-17T05:08:36.525Z,17.80
2022-08-17T05:09:36.509Z,17.78
2022-08-17T05:10:36.543Z,17.75
2022-08-17T05:11:36.492Z,17.72
2022-08-17T05:12:36.518Z,17.71
2022-08-17T05:13:36.465Z,17.69
2022-08-17T05:14:36.713Z,17.71
2022-08-17T05:15:36.445Z,17.71
2022-08-17T05:16:36.477Z,17.72
2022-08-17T05:17:37.137Z,17.72
2022-08-17T05:18:36.682Z,17.73
2022-08-17T05:19:36.413Z,17.75
2022-08-17T05:20:36.412Z,17.73
2022-08-17T05:21:36.426Z,17.72
2022-08-17T05:22:36.937Z,17.78
2022-08-17T05:23:43.049Z,17.86
2022-08-17T05:24:38.335Z,18.00
2022-08-17T05:25:36.324Z,18.13
2022-08-17T05:26:36.426Z,18.19
2022-08-17T05:27:36.355Z,18.24
2022-08-17T05:28:42.596Z,18.23
2022-08-17T05:29:42.865Z,18.21
2022-08-17T05:30:42.262Z,18.21
2022-08-17T05:31:36.321Z,18.24
2022-08-17T05:32:39.439Z,18.31
2022-08-17T05:33:36.240Z,18.45
2022-08-17T05:34:36.250Z,18.55
2022-08-17T05:35:36.289Z,18.66
2022-08-17T05:36:43.484Z,18.74
2022-08-17T05:37:37.037Z,18.83
2022-08-17T05:38:36.179Z,18.91
2022-08-17T05:39:36.196Z,18.98
2022-08-17T05:40:36.169Z,19.05
2022-08-17T05:41:36.241Z,19.11
2022-08-17T05:42:36.164Z,19.17
2022-08-17T05:43:36.172Z,19.23
2022-08-17T05:44:36.142Z,19.29
2022-08-17T05:45:55.353Z,19.32
2022-08-17T05:46:36.208Z,19.35
2022-08-17T05:47:36.297Z,19.38
2022-08-17T05:48:39.308Z,19.41
2022-08-17T05:49:36.069Z,19.41
2022-08-17T05:50:36.117Z,19.42
2022-08-17T05:51:36.050Z,19.45
2022-08-17T05:52:36.031Z,19.44
2022-08-17T05:53:36.086Z,19.44
2022-08-17T05:54:36.068Z,19.41
2022-08-17T05:55:36.056Z,19.41
2022-08-17T05:56:35.995Z,19.39
2022-08-17T05:57:35.964Z,19.39
2022-08-17T05:58:36.003Z,19.41
2022-08-17T05:59:36.031Z,19.44
2022-08-17T06:00:35.938Z,19.44
2022-08-17T06:01:35.979Z,19.41
2022-08-17T06:02:35.918Z,19.44
2022-08-17T06:03:35.903Z,19.45
2022-08-17T06:04:35.888Z,19.49
2022-08-17T06:05:35.935Z,19.53
2022-08-17T06:06:35.863Z,19.53
2022-08-17T06:07:35.881Z,19.55
2022-08-17T06:08:35.848Z,19.56
2022-08-17T06:09:35.830Z,19.56
2022-08-17T06:10:35.831Z,19.56
2022-08-17T06:11:35.925Z,19.57
2022-08-17T06:12:35.795Z,19.57
2022-08-17T06:13:35.780Z,19.56
2022-08-17T06:14:35.775Z,19.55
2022-08-17T06:15:35.768Z,19.52
2022-08-17T06:16:35.759Z,19.52
2022-08-17T06:17:36.598Z,19.52
2022-08-17T06:18:35.734Z,19.49
2022-08-17T06:19:35.731Z,19.48
2022-08-17T06:20:35.706Z,19.52
2022-08-17T06:21:35.699Z,19.55
2022-08-17T06:22:35.713Z,19.53
2022-08-17T06:23:35.898Z,19.59
2022-08-17T06:24:36.037Z,19.59
2022-08-17T06:25:35.696Z,19.59
2022-08-17T06:26:39.647Z,19.63
2022-08-17T06:27:35.772Z,19.64
2022-08-17T06:28:35.730Z,19.67
2022-08-17T06:29:35.688Z,19.72
2022-08-17T06:30:58.302Z,19.74
2022-08-17T06:31:35.588Z,19.77
2022-08-17T06:32:36.843Z,19.79
2022-08-17T06:33:35.763Z,19.89
2022-08-17T06:34:35.716Z,19.89
2022-08-17T06:35:35.918Z,19.90
2022-08-17T06:36:35.760Z,19.90
2022-08-17T06:37:36.074Z,19.90
2022-08-17T06:38:37.423Z,19.96
2022-08-17T06:39:35.554Z,20.02
2022-08-17T06:40:35.528Z,20.10
2022-08-17T06:41:37.883Z,20.11
2022-08-17T06:42:54.619Z,20.12
2022-08-17T06:43:35.823Z,20.21
2022-08-17T06:44:50.093Z,20.30
2022-08-17T06:45:35.511Z,20.37
2022-08-17T06:46:35.479Z,20.40
2022-08-17T06:47:35.460Z,20.52
2022-08-17T06:48:35.553Z,20.53
2022-08-17T06:49:35.609Z,20.58
2022-08-17T06:50:35.694Z,20.67
2022-08-17T06:51:35.675Z,20.71
2022-08-17T06:52:46.310Z,20.78
2022-08-17T06:53:35.438Z,20.89
2022-08-17T06:54:35.595Z,20.98
2022-08-17T06:55:38.119Z,21.13
2022-08-17T06:56:53.884Z,21.17
2022-08-17T06:57:35.951Z,21.13
2022-08-17T06:58:35.391Z,21.14
2022-08-17T06:59:54.359Z,21.17
2022-08-17T07:00:35.330Z,21.22
2022-08-17T07:01:35.324Z,21.22
2022-08-17T07:02:52.381Z,21.26
2022-08-17T07:03:35.271Z,21.29
2022-08-17T07:04:35.264Z,21.33
2022-08-17T07:05:35.259Z,21.41
2022-08-17T07:06:37.945Z,21.40
2022-08-17T07:07:35.461Z,21.40
2022-08-17T07:08:35.550Z,21.37
2022-08-17T07:09:35.166Z,21.35
2022-08-17T07:10:35.141Z,21.40
2022-08-17T07:11:35.190Z,21.44
2022-08-17T07:12:35.121Z,21.51
2022-08-17T07:13:35.134Z,21.59
2022-08-17T07:14:35.179Z,21.56
2022-08-17T07:15:35.082Z,21.54
2022-08-17T07:16:35.070Z,21.51
2022-08-17T07:17:46.780Z,21.56
2022-08-17T07:18:35.067Z,21.66
2022-08-17T07:19:35.085Z,21.80
2022-08-17T07:20:35.020Z,21.92
2022-08-17T07:21:35.015Z,22.01
2022-08-17T07:22:55.217Z,22.07
2022-08-17T07:23:35.032Z,22.14
2022-08-17T07:24:34.985Z,22.26
2022-08-17T07:25:35.023Z,22.38
2022-08-17T07:26:35.016Z,22.43
2022-08-17T07:27:34.953Z,22.52
2022-08-17T07:28:34.931Z,22.55
2022-08-17T07:29:34.971Z,22.58
2022-08-17T07:30:46.938Z,22.67
2022-08-17T07:31:34.922Z,22.71
2022-08-17T07:32:34.905Z,22.77
2022-08-17T07:33:34.927Z,22.89
2022-08-17T07:34:34.889Z,22.89
2022-08-17T07:35:40.895Z,22.91
2022-08-17T07:36:34.851Z,23.04
2022-08-17T07:37:34.838Z,23.16
2022-08-17T07:38:34.837Z,23.34
2022-08-17T07:39:34.911Z,23.34
2022-08-17T07:40:34.884Z,23.29
2022-08-17T07:41:53.272Z,23.36
2022-08-17T07:42:34.817Z,23.34
2022-08-17T07:43:34.774Z,23.23
2022-08-17T07:44:34.788Z,23.17
2022-08-17T07:45:34.796Z,23.07
2022-08-17T07:46:34.764Z,23.02
2022-08-17T07:47:34.818Z,22.99
2022-08-17T07:48:34.718Z,22.84
2022-08-17T07:49:34.705Z,22.77
2022-08-17T07:50:34.700Z,22.68
2022-08-17T07:51:34.760Z,22.63
2022-08-17T07:52:51.049Z,22.52
2022-08-17T07:53:34.831Z,22.43
2022-08-17T07:54:35.581Z,22.37
2022-08-17T07:55:34.650Z,22.36
2022-08-17T07:56:34.851Z,22.33
2022-08-17T07:57:34.614Z,22.22
2022-08-17T07:58:34.597Z,22.21
2022-08-17T07:59:34.663Z,22.15
2022-08-17T08:00:34.586Z,22.08
2022-08-17T08:01:39.570Z,22.07
2022-08-17T08:02:34.590Z,22.06
2022-08-17T08:03:34.648Z,22.07
2022-08-17T08:04:58.973Z,21.99
2022-08-17T08:05:50.073Z,21.99
2022-08-17T08:06:34.534Z,21.97
2022-08-17T08:07:34.564Z,21.94
2022-08-17T08:08:34.584Z,21.92
2022-08-17T08:09:34.493Z,21.94
2022-08-17T08:10:34.462Z,21.91
2022-08-17T08:11:34.513Z,21.89
2022-08-17T08:12:34.447Z,21.88
2022-08-17T08:13:34.436Z,21.85
2022-08-17T08:14:34.422Z,21.83
2022-08-17T08:15:34.436Z,21.85
2022-08-17T08:16:34.416Z,21.84
2022-08-17T08:17:34.660Z,21.83
2022-08-17T08:18:38.763Z,21.84
2022-08-17T08:19:34.375Z,21.91
2022-08-17T08:20:52.466Z,21.94
2022-08-17T08:21:34.357Z,21.91
2022-08-17T08:22:34.339Z,21.81
2022-08-17T08:23:34.392Z,21.81
2022-08-17T08:24:34.350Z,21.84
2022-08-17T08:25:34.335Z,21.85
2022-08-17T08:26:34.286Z,21.92
2022-08-17T08:27:34.272Z,21.99
2022-08-17T08:28:34.309Z,22.06
2022-08-17T08:29:34.328Z,22.03
2022-08-17T08:30:34.239Z,22.04
2022-08-17T08:31:36.710Z,22.06
2022-08-17T08:32:34.223Z,22.12
2022-08-17T08:33:34.226Z,22.19
2022-08-17T08:34:58.817Z,22.22
2022-08-17T08:35:34.253Z,22.16
2022-08-17T08:37:14.761Z,22.08
2022-08-17T08:37:39.100Z,22.06
2022-08-17T08:38:34.201Z,22.07
2022-08-17T08:39:34.197Z,22.06
2022-08-17T08:40:34.128Z,22.06
2022-08-17T08:41:34.434Z,22.07
2022-08-17T08:42:34.143Z,22.08
2022-08-17T08:43:34.251Z,22.07
2022-08-17T08:45:00.350Z,22.01
2022-08-17T08:45:34.585Z,22.04
2022-08-17T08:46:34.066Z,22.06
2022-08-17T08:47:46.249Z,22.10
2022-08-17T08:48:52.828Z,22.14
2022-08-17T08:50:02.177Z,22.12
2022-08-17T08:50:37.344Z,22.10
2022-08-17T08:51:34.002Z,22.10
2022-08-17T08:52:33.991Z,22.06
2022-08-17T08:53:34.052Z,22.03
2022-08-17T08:54:33.974Z,22.06
2022-08-17T08:55:33.985Z,22.00
2022-08-17T08:56:33.940Z,22.03
2022-08-17T08:57:34.683Z,22.06
2022-08-17T08:58:42.107Z,22.12
2022-08-17T08:59:33.973Z,22.16
2022-08-17T09:00:33.918Z,22.14
2022-08-17T09:01:33.954Z,22.15
2022-08-17T09:02:34.878Z,22.15
2022-08-17T09:03:51.495Z,22.16
2022-08-17T09:04:50.012Z,22.12
2022-08-17T09:05:33.895Z,22.16
2022-08-17T09:06:39.129Z,22.15
2022-08-17T09:07:33.830Z,22.16
2022-08-17T09:08:33.825Z,22.16
2022-08-17T09:09:33.824Z,22.12
2022-08-17T09:10:33.807Z,22.06
2022-08-17T09:11:33.829Z,22.01
2022-08-17T09:12:33.765Z,22.00
2022-08-17T09:13:33.787Z,22.00
2022-08-17T09:14:45.361Z,22.00
2022-08-17T09:15:34.451Z,22.00
2022-08-17T09:16:33.897Z,21.97
2022-08-17T09:17:34.273Z,21.97
2022-08-17T09:18:59.158Z,21.97
2022-08-17T09:19:33.784Z,21.99
2022-08-17T09:20:33.749Z,21.96
2022-08-17T09:21:34.098Z,21.91
2022-08-17T09:22:33.688Z,21.88
2022-08-17T09:23:33.791Z,21.85
2022-08-17T09:24:33.739Z,21.84
2022-08-17T09:25:33.658Z,21.81
2022-08-17T09:26:33.604Z,21.78
2022-08-17T09:27:33.606Z,21.81
2022-08-17T09:28:33.588Z,21.78
2022-08-17T09:29:33.660Z,21.80
2022-08-17T09:30:33.632Z,21.85
2022-08-17T09:31:33.610Z,21.83
2022-08-17T09:32:34.490Z,21.81
2022-08-17T09:33:33.533Z,21.83
2022-08-17T09:34:33.522Z,21.83
2022-08-17T09:35:36.995Z,21.83
2022-08-17T09:36:33.535Z,21.84
2022-08-17T09:37:33.563Z,21.84
2022-08-17T09:38:33.476Z,21.81
2022-08-17T09:39:33.550Z,21.81
2022-08-17T09:40:33.492Z,21.80
2022-08-17T09:41:33.563Z,21.81
2022-08-17T09:42:33.483Z,21.83
2022-08-17T09:43:33.422Z,21.81
2022-08-17T09:44:33.408Z,21.83
2022-08-17T09:45:33.395Z,21.84
2022-08-17T09:46:33.382Z,21.85
2022-08-17T09:47:33.434Z,21.88
2022-08-17T09:48:33.473Z,21.88
2022-08-17T09:49:33.374Z,21.88
2022-08-17T09:51:04.173Z,21.91
2022-08-17T09:51:33.331Z,21.88
2022-08-17T09:52:33.332Z,21.88
2022-08-17T09:53:33.342Z,21.84
2022-08-17T09:54:40.872Z,21.85
2022-08-17T09:55:33.325Z,21.83
2022-08-17T09:56:33.322Z,21.81
2022-08-17T09:57:33.270Z,21.83
2022-08-17T09:58:33.313Z,21.84
2022-08-17T09:59:38.510Z,21.81
2022-08-17T10:00:33.269Z,21.84
2022-08-17T10:01:33.312Z,21.85
2022-08-17T10:02:33.197Z,21.88
2022-08-17T10:03:33.199Z,21.89
2022-08-17T10:04:33.181Z,21.89
2022-08-17T10:05:33.219Z,21.88
2022-08-17T10:06:33.266Z,21.84
2022-08-17T10:07:33.149Z,21.84
2022-08-17T10:08:33.166Z,21.83
2022-08-17T10:09:33.131Z,21.80
2022-08-17T10:10:33.115Z,21.83
2022-08-17T10:11:34.031Z,21.81
2022-08-17T10:12:33.105Z,21.83
2022-08-17T10:13:33.211Z,21.84
2022-08-17T10:14:38.109Z,21.85
2022-08-17T10:15:33.107Z,21.88
2022-08-17T10:16:33.061Z,21.84
2022-08-17T10:17:33.594Z,21.84
2022-08-17T10:18:33.335Z,21.83
2022-08-17T10:19:33.157Z,21.81
2022-08-17T10:20:33.021Z,21.80
2022-08-17T10:21:33.014Z,21.84
2022-08-17T10:22:35.584Z,21.89
2022-08-17T10:23:33.007Z,21.94
2022-08-17T10:24:32.962Z,21.94
2022-08-17T10:25:53.473Z,21.94
2022-08-17T10:26:46.222Z,21.94
2022-08-17T10:27:33.290Z,21.96
2022-08-17T10:28:32.902Z,22.00
2022-08-17T10:29:46.212Z,22.00
2022-08-17T10:30:32.907Z,22.06
2022-08-17T10:31:35.483Z,22.07
2022-08-17T10:32:32.877Z,22.12
2022-08-17T10:33:33.604Z,22.14
2022-08-17T10:34:38.659Z,22.15
2022-08-17T10:35:33.514Z,22.16
2022-08-17T10:36:32.837Z,22.21
2022-08-17T10:37:33.267Z,22.26
2022-08-17T10:38:32.996Z,22.28
2022-08-17T10:39:33.018Z,22.31
2022-08-17T10:40:33.601Z,22.31
2022-08-17T10:41:36.863Z,22.36
2022-08-17T10:42:33.338Z,22.44
2022-08-17T10:43:32.745Z,22.51
2022-08-17T10:44:37.877Z,22.59
2022-08-17T10:45:32.752Z,22.68
2022-08-17T10:46:32.741Z,22.81
2022-08-17T10:47:52.760Z,22.88
2022-08-17T10:48:33.076Z,22.91
2022-08-17T10:49:32.755Z,22.95
2022-08-17T10:50:34.602Z,23.02
2022-08-17T10:51:32.698Z,23.13
2022-08-17T10:52:32.653Z,23.20
2022-08-17T10:53:34.061Z,23.33
2022-08-17T10:54:33.597Z,23.48
2022-08-17T10:55:32.674Z,23.55
2022-08-17T10:56:32.640Z,23.59
2022-08-17T10:57:32.675Z,23.85
2022-08-17T10:58:32.579Z,24.07
2022-08-17T10:59:32.771Z,24.21
2022-08-17T11:00:32.580Z,24.21
2022-08-17T11:01:32.782Z,24.25
2022-08-17T11:02:32.580Z,24.28
2022-08-17T11:03:32.550Z,24.31
2022-08-17T11:04:32.532Z,24.31
2022-08-17T11:05:32.575Z,24.32
2022-08-17T11:06:32.547Z,24.44
2022-08-17T11:07:32.498Z,24.50
2022-08-17T11:08:32.491Z,24.47
2022-08-17T11:09:33.701Z,24.47
2022-08-17T11:10:32.464Z,24.50
2022-08-17T11:11:32.741Z,24.50
2022-08-17T11:12:32.417Z,24.58
2022-08-17T11:13:32.408Z,24.51
2022-08-17T11:14:34.069Z,24.55
2022-08-17T11:15:32.413Z,24.59
2022-08-17T11:16:32.410Z,24.53
2022-08-17T11:17:32.415Z,24.50
2022-08-17T11:18:32.408Z,24.53
2022-08-17T11:19:32.338Z,24.65
2022-08-17T11:20:32.345Z,24.74
2022-08-17T11:21:32.382Z,24.82
2022-08-17T11:22:33.710Z,24.85
2022-08-17T11:23:32.334Z,24.88
2022-08-17T11:24:32.320Z,24.92
2022-08-17T11:25:32.304Z,24.88
2022-08-17T11:26:33.092Z,24.75
2022-08-17T11:27:32.247Z,24.75
2022-08-17T11:28:32.240Z,24.81
2022-08-17T11:29:32.261Z,24.78
2022-08-17T11:30:32.209Z,24.74
2022-08-17T11:31:38.695Z,24.62
2022-08-17T11:32:32.219Z,24.63
2022-08-17T11:33:32.184Z,24.63
2022-08-17T11:34:32.182Z,24.63
2022-08-17T11:35:32.216Z,24.66
2022-08-17T11:36:32.171Z,24.65
2022-08-17T11:37:32.149Z,24.71
2022-08-17T11:38:32.160Z,24.79
2022-08-17T11:39:32.218Z,24.86
2022-08-17T11:40:32.148Z,24.89
2022-08-17T11:41:32.146Z,24.81
2022-08-17T11:42:32.081Z,24.81
2022-08-17T11:43:32.152Z,24.82
2022-08-17T11:44:32.076Z,24.88
2022-08-17T11:45:33.070Z,24.93
2022-08-17T11:46:32.045Z,25.04
2022-08-17T11:47:32.076Z,25.19
2022-08-17T11:48:32.283Z,25.40
2022-08-17T11:49:31.994Z,25.61
2022-08-17T11:50:31.994Z,25.74
2022-08-17T11:51:32.078Z,25.80
2022-08-17T11:52:31.977Z,25.86
2022-08-17T11:53:32.007Z,25.73
2022-08-17T11:54:33.756Z,25.68
2022-08-17T11:55:35.776Z,25.61
2022-08-17T11:56:32.009Z,25.56
2022-08-17T11:57:31.936Z,25.46
2022-08-17T11:58:31.929Z,25.39
2022-08-17T11:59:31.914Z,25.33
2022-08-17T12:00:31.881Z,25.25
2022-08-17T12:01:31.870Z,25.18
2022-08-17T12:02:32.751Z,25.09
2022-08-17T12:03:32.083Z,25.11
2022-08-17T12:04:31.936Z,25.16
2022-08-17T12:05:31.871Z,25.16
2022-08-17T12:06:31.812Z,25.18
2022-08-17T12:07:31.821Z,25.15
2022-08-17T12:08:31.822Z,25.15
2022-08-17T12:09:31.811Z,25.29
2022-08-17T12:10:31.859Z,25.41
2022-08-17T12:12:11.140Z,25.46
2022-08-17T12:12:31.758Z,25.55
2022-08-17T12:13:39.262Z,25.54
2022-08-17T12:15:05.752Z,25.52
2022-08-17T12:15:31.786Z,25.46
2022-08-17T12:16:31.696Z,25.39
2022-08-17T12:17:41.003Z,25.31
2022-08-17T12:18:31.820Z,25.25
2022-08-17T12:19:31.677Z,25.19
2022-08-17T12:20:31.719Z,25.18
2022-08-17T12:21:31.676Z,25.11
2022-08-17T12:22:31.653Z,24.99
2022-08-17T12:23:31.662Z,24.86
2022-08-17T12:24:31.742Z,24.74
2022-08-17T12:25:31.625Z,24.62
2022-08-17T12:26:31.944Z,24.62
2022-08-17T12:27:47.618Z,24.59
2022-08-17T12:28:37.624Z,24.63
2022-08-17T12:29:35.950Z,24.56
2022-08-17T12:30:33.187Z,24.58
2022-08-17T12:31:31.570Z,24.58
2022-08-17T12:32:31.559Z,24.61
2022-08-17T12:33:31.513Z,24.58
2022-08-17T12:34:31.536Z,24.47
2022-08-17T12:35:31.683Z,24.41
2022-08-17T12:36:31.704Z,24.50
2022-08-17T12:37:31.474Z,24.46
2022-08-17T12:38:33.209Z,24.46
2022-08-17T12:39:33.958Z,24.43
2022-08-17T12:40:31.505Z,24.40
2022-08-17T12:41:31.603Z,24.26
2022-08-17T12:42:31.424Z,24.18
2022-08-17T12:43:31.436Z,24.07
2022-08-17T12:44:31.484Z,24.14
2022-08-17T12:45:31.403Z,24.10
2022-08-17T12:46:31.474Z,24.03
2022-08-17T12:47:31.755Z,24.00
2022-08-17T12:48:31.384Z,24.01
2022-08-17T12:49:31.391Z,23.94
2022-08-17T12:50:31.341Z,23.96
2022-08-17T12:51:31.317Z,23.96
2022-08-17T12:52:31.377Z,23.96